Time;durP1;ratioP1;P1;durP2;ratioP2;P2;SDS_P1;SDS_P2;PMS_P1;PMS_P2;Temp;Humidity;BMP_temperature;BMP_pressure;BME280_temperature;BME280_humidity;BME280_pressure;Samples;Min_cycle;Max_cycle;Signal;HPM_P1;HPM_P2
2024/03/29 00:00:42;;;;;;;0.47;0.20;;;;;;;;;;4998180;28;20037;-77
2024/03/29 00:03:09;;;;;;;1.70;0.70;;;;;;;;;;4994265;28;20762;-79
2024/03/29 00:05:35;;;;;;;0.63;0.40;;;;;;;;;;4995214;28;20083;-80
2024/03/29 00:08:00;;;;;;;0.32;0.32;;;;;;;;;;4994155;28;20033;-79
2024/03/29 00:10:26;;;;;;;0.60;0.30;;;;;;;;;;5012883;28;20044;-79
2024/03/29 00:12:51;;;;;;;0.60;0.30;;;;;;;;;;5006135;28;20120;-79
2024/03/29 00:15:17;;;;;;;1.58;0.43;;;;;;;;;;5004369;28;20034;-79
2024/03/29 00:17:42;;;;;;;0.52;0.40;;;;;;;;;;5000046;28;20661;-80
2024/03/29 00:20:08;;;;;;;3.13;0.40;;;;;;;;;;4966999;28;20038;-80
2024/03/29 00:22:34;;;;;;;1.83;0.50;;;;;;;;;;4986671;28;20691;-79
2024/03/29 00:24:59;;;;;;;1.45;0.50;;;;;;;;;;4982857;28;20069;-81
2024/03/29 00:27:26;;;;;;;0.98;0.38;;;;;;;;;;4994290;28;20039;-79
2024/03/29 00:29:55;;;;;;;2.38;0.50;;;;;;;;;;5013222;28;20076;-79
2024/03/29 00:32:21;;;;;;;1.00;0.40;;;;;;;;;;5003510;28;20084;-80
2024/03/29 00:34:50;;;;;;;1.77;0.90;;;;;;;;;;4988293;28;20561;-79
2024/03/29 00:37:16;;;;;;;0.63;0.30;;;;;;;;;;4989297;28;20115;-80
2024/03/29 00:39:41;;;;;;;1.02;0.38;;;;;;;;;;4982516;28;20510;-80
2024/03/29 00:42:08;;;;;;;0.40;0.40;;;;;;;;;;5006281;28;20076;-79
2024/03/29 00:44:35;;;;;;;0.77;0.40;;;;;;;;;;5002385;28;20039;-79
2024/03/29 00:47:01;;;;;;;0.40;0.30;;;;;;;;;;5012270;28;20052;-77
2024/03/29 00:49:26;;;;;;;0.95;0.45;;;;;;;;;;5013917;28;20136;-78
2024/03/29 00:51:51;;;;;;;2.80;0.50;;;;;;;;;;5004277;28;20104;-78
2024/03/29 00:54:18;;;;;;;2.35;1.20;;;;;;;;;;4996629;28;20151;-77
2024/03/29 00:56:44;;;;;;;3.03;0.60;;;;;;;;;;5008091;28;20525;-79
2024/03/29 00:59:10;;;;;;;3.33;1.20;;;;;;;;;;4999123;28;20038;-78
2024/03/29 01:01:35;;;;;;;1.08;0.90;;;;;;;;;;4995171;28;20046;-78
2024/03/29 01:04:01;;;;;;;3.72;0.70;;;;;;;;;;5010393;28;20508;-79
2024/03/29 01:06:26;;;;;;;1.08;0.50;;;;;;;;;;4993194;28;20061;-80
2024/03/29 01:08:51;;;;;;;0.45;0.45;;;;;;;;;;5006941;28;20037;-79
2024/03/29 01:11:17;;;;;;;0.47;0.28;;;;;;;;;;5007870;28;20457;-79
2024/03/29 01:13:42;;;;;;;1.45;0.40;;;;;;;;;;4966618;28;20061;-79
2024/03/29 01:16:07;;;;;;;0.82;0.40;;;;;;;;;;4983024;28;20546;-77
2024/03/29 01:18:33;;;;;;;1.70;0.40;;;;;;;;;;5003740;28;20114;-77
2024/03/29 01:20:59;;;;;;;0.35;0.30;;;;;;;;;;5008188;28;20029;-77
2024/03/29 01:23:24;;;;;;;0.40;0.40;;;;;;;;;;4999149;28;20045;-78
2024/03/29 01:25:50;;;;;;;2.50;0.50;;;;;;;;;;4994539;28;20104;-79
2024/03/29 01:28:15;;;;;;;2.28;0.63;;;;;;;;;;5004219;28;20030;-78
2024/03/29 01:30:41;;;;;;;4.30;0.80;;;;;;;;;;5002245;28;20495;-78
2024/03/29 01:33:06;;;;;;;1.75;0.50;;;;;;;;;;5005336;28;20033;-77
2024/03/29 01:35:31;;;;;;;1.50;0.45;;;;;;;;;;5003659;28;20061;-77
2024/03/29 01:37:57;;;;;;;1.70;0.50;;;;;;;;;;5005486;28;20042;-77
2024/03/29 01:40:22;;;;;;;2.75;0.60;;;;;;;;;;4991725;28;20041;-76
2024/03/29 01:42:47;;;;;;;2.85;0.45;;;;;;;;;;4990759;28;20091;-78
2024/03/29 01:45:13;;;;;;;0.82;0.40;;;;;;;;;;4999100;28;20438;-78
2024/03/29 01:47:38;;;;;;;2.97;0.40;;;;;;;;;;4981524;28;20030;-77
2024/03/29 01:50:04;;;;;;;1.55;0.50;;;;;;;;;;5005766;28;20681;-78
2024/03/29 01:52:30;;;;;;;1.65;0.30;;;;;;;;;;5012233;28;20262;-77
2024/03/29 01:54:56;;;;;;;1.50;0.55;;;;;;;;;;4996036;28;20037;-78
2024/03/29 01:57:22;;;;;;;0.95;0.55;;;;;;;;;;5010744;28;20033;-77
2024/03/29 01:59:48;;;;;;;1.92;0.50;;;;;;;;;;5005952;28;20041;-77
2024/03/29 02:02:17;;;;;;;3.72;1.05;;;;;;;;;;5000898;28;20038;-78
2024/03/29 02:04:43;;;;;;;3.75;0.50;;;;;;;;;;4979698;28;20042;-78
2024/03/29 02:07:09;;;;;;;2.13;0.30;;;;;;;;;;4979799;28;20046;-77
2024/03/29 02:09:34;;;;;;;1.10;0.40;;;;;;;;;;4989005;28;20037;-77
2024/03/29 02:11:59;;;;;;;0.88;0.50;;;;;;;;;;5009003;28;20057;-77
2024/03/29 02:14:25;;;;;;;1.50;0.70;;;;;;;;;;5000752;28;20064;-77
2024/03/29 02:16:50;;;;;;;0.70;0.40;;;;;;;;;;4988441;28;20038;-78
2024/03/29 02:19:15;;;;;;;3.03;0.70;;;;;;;;;;4996780;28;20439;-77
2024/03/29 02:21:45;;;;;;;2.03;0.55;;;;;;;;;;4999609;28;20685;-77
2024/03/29 02:24:14;;;;;;;0.70;0.28;;;;;;;;;;4992683;28;20030;-78
2024/03/29 02:26:42;;;;;;;2.42;1.08;;;;;;;;;;5001762;28;20034;-78
2024/03/29 02:29:09;;;;;;;2.22;0.40;;;;;;;;;;5011806;28;20038;-77
2024/03/29 02:31:34;;;;;;;1.80;0.70;;;;;;;;;;4984530;28;20548;-78
2024/03/29 02:34:00;;;;;;;1.55;0.40;;;;;;;;;;5003746;28;20049;-78
2024/03/29 02:36:25;;;;;;;0.60;0.30;;;;;;;;;;4988944;28;20121;-78
2024/03/29 02:38:50;;;;;;;0.57;0.30;;;;;;;;;;5003654;28;20034;-78
2024/03/29 02:41:16;;;;;;;0.55;0.55;;;;;;;;;;4968565;28;20037;-78
2024/03/29 02:43:42;;;;;;;2.40;0.45;;;;;;;;;;4996289;28;20061;-78
2024/03/29 02:46:07;;;;;;;1.52;0.73;;;;;;;;;;4986902;28;20104;-79
2024/03/29 02:48:32;;;;;;;0.57;0.50;;;;;;;;;;4999734;28;20057;-78
2024/03/29 02:50:58;;;;;;;0.55;0.50;;;;;;;;;;5009162;28;20046;-79
2024/03/29 02:53:23;;;;;;;0.20;0.20;;;;;;;;;;4996673;28;20368;-78
2024/03/29 02:55:49;;;;;;;0.20;0.20;;;;;;;;;;5011580;28;20120;-78
2024/03/29 02:58:15;;;;;;;1.70;0.52;;;;;;;;;;5009515;28;20029;-78
2024/03/29 03:00:40;;;;;;;1.05;0.43;;;;;;;;;;5008773;28;20725;-78
2024/03/29 03:03:05;;;;;;;0.55;0.38;;;;;;;;;;4991586;28;20048;-78
2024/03/29 03:05:31;;;;;;;1.15;0.40;;;;;;;;;;5007918;28;20089;-79
2024/03/29 03:11:01;;;;;;;0.30;0.30;;;;;;;;;;4971033;28;20072;-79
2024/03/29 03:13:28;;;;;;;1.75;0.40;;;;;;;;;;5006702;28;20064;-79
2024/03/29 03:15:54;;;;;;;1.23;0.32;;;;;;;;;;5002255;28;20041;-79
2024/03/29 03:18:19;;;;;;;2.25;0.68;;;;;;;;;;5006389;28;20026;-78
2024/03/29 03:20:57;;;;;;;2.42;0.40;;;;;;;;;;4995580;28;20068;-77
2024/03/29 03:23:22;;;;;;;1.52;0.43;;;;;;;;;;4998847;28;20443;-77
2024/03/29 03:25:54;;;;;;;0.80;0.25;;;;;;;;;;4983879;28;20164;-77
2024/03/29 03:28:20;;;;;;;1.13;0.60;;;;;;;;;;4997100;28;20026;-80
2024/03/29 03:30:45;;;;;;;2.03;0.68;;;;;;;;;;4981257;28;20038;-78
2024/03/29 03:33:11;;;;;;;1.38;0.47;;;;;;;;;;5009164;28;20029;-78
2024/03/29 03:35:36;;;;;;;3.50;0.55;;;;;;;;;;5005175;28;20116;-77
2024/03/29 03:38:02;;;;;;;1.00;0.40;;;;;;;;;;4994527;28;20041;-77
2024/03/29 03:40:27;;;;;;;1.42;0.45;;;;;;;;;;4987624;28;20033;-78
2024/03/29 03:42:52;;;;;;;0.47;0.47;;;;;;;;;;4998061;28;20104;-77
2024/03/29 03:45:18;;;;;;;0.98;0.50;;;;;;;;;;5002547;28;20128;-78
2024/03/29 03:47:43;;;;;;;1.27;0.40;;;;;;;;;;4979414;28;20029;-77
2024/03/29 03:50:11;;;;;;;1.02;0.40;;;;;;;;;;4997559;28;20038;-77
2024/03/29 03:52:37;;;;;;;0.35;0.30;;;;;;;;;;4995220;28;20049;-77
2024/03/29 03:55:02;;;;;;;1.48;0.45;;;;;;;;;;4979698;28;20116;-77
2024/03/29 03:57:28;;;;;;;0.88;0.30;;;;;;;;;;4998633;28;20041;-77
2024/03/29 03:59:53;;;;;;;3.10;0.57;;;;;;;;;;5001109;28;20068;-77
2024/03/29 04:02:19;;;;;;;1.80;0.40;;;;;;;;;;5007693;28;20045;-78
2024/03/29 04:04:47;;;;;;;1.15;0.52;;;;;;;;;;4972764;28;20041;-78
2024/03/29 04:07:13;;;;;;;0.20;0.20;;;;;;;;;;4996462;28;20052;-77
2024/03/29 04:09:38;;;;;;;1.17;0.40;;;;;;;;;;5006879;28;20029;-78
2024/03/29 04:12:04;;;;;;;0.60;0.50;;;;;;;;;;4992199;28;20042;-77
2024/03/29 04:14:29;;;;;;;3.80;0.65;;;;;;;;;;4997915;28;20120;-76
2024/03/29 04:16:54;;;;;;;2.25;0.40;;;;;;;;;;5003726;28;20041;-76
2024/03/29 04:19:20;;;;;;;0.45;0.35;;;;;;;;;;4998026;28;20089;-76
2024/03/29 04:21:45;;;;;;;0.55;0.50;;;;;;;;;;4998620;28;20403;-77
2024/03/29 04:24:10;;;;;;;1.45;0.50;;;;;;;;;;5005854;28;20037;-76
2024/03/29 04:26:37;;;;;;;1.00;0.93;;;;;;;;;;5012523;28;20041;-76
2024/03/29 04:29:03;;;;;;;1.58;0.50;;;;;;;;;;4985267;28;20124;-76
2024/03/29 04:31:28;;;;;;;1.05;0.45;;;;;;;;;;5002601;28;20041;-76
2024/03/29 04:33:53;;;;;;;2.67;0.60;;;;;;;;;;5007121;28;20466;-76
2024/03/29 04:36:19;;;;;;;1.20;0.32;;;;;;;;;;4992282;28;20128;-76
2024/03/29 04:38:44;;;;;;;1.17;0.40;;;;;;;;;;4993293;28;20076;-77
2024/03/29 04:41:10;;;;;;;2.75;0.65;;;;;;;;;;5003049;28;20042;-76
2024/03/29 04:43:35;;;;;;;2.85;0.38;;;;;;;;;;5003187;28;20743;-76
2024/03/29 04:46:06;;;;;;;2.65;0.50;;;;;;;;;;4986968;28;20033;-77
2024/03/29 04:48:32;;;;;;;2.13;0.60;;;;;;;;;;5006536;28;20072;-75
2024/03/29 04:50:57;;;;;;;1.83;0.40;;;;;;;;;;5010668;28;20073;-76
2024/03/29 04:53:23;;;;;;;0.40;0.40;;;;;;;;;;5007688;28;20045;-76
2024/03/29 04:55:55;;;;;;;0.30;0.30;;;;;;;;;;5010727;28;20703;-77
2024/03/29 04:58:27;;;;;;;1.02;0.55;;;;;;;;;;5007989;28;20044;-76
2024/03/29 05:00:52;;;;;;;1.88;0.50;;;;;;;;;;4998196;28;20042;-76
2024/03/29 05:03:19;;;;;;;2.28;1.02;;;;;;;;;;5008853;28;20087;-77
2024/03/29 05:05:45;;;;;;;2.28;0.52;;;;;;;;;;5003312;28;20038;-76
2024/03/29 05:08:10;;;;;;;1.92;0.80;;;;;;;;;;5003313;28;20124;-76
2024/03/29 05:10:36;;;;;;;4.43;0.60;;;;;;;;;;5008317;28;20514;-76
2024/03/29 05:13:01;;;;;;;1.08;0.45;;;;;;;;;;5011010;28;20045;-76
2024/03/29 05:15:27;;;;;;;1.30;0.43;;;;;;;;;;4997379;28;20072;-76
2024/03/29 05:17:53;;;;;;;0.63;0.43;;;;;;;;;;4967169;28;20042;-76
2024/03/29 05:20:19;;;;;;;0.88;0.50;;;;;;;;;;5000882;28;20037;-76
2024/03/29 05:22:44;;;;;;;1.92;0.60;;;;;;;;;;4988450;28;20034;-75
2024/03/29 05:25:10;;;;;;;4.90;0.68;;;;;;;;;;4986668;28;20500;-76
2024/03/29 05:27:35;;;;;;;1.42;0.40;;;;;;;;;;5010458;28;20713;-76
2024/03/29 05:30:02;;;;;;;2.85;0.60;;;;;;;;;;4994911;28;20521;-76
2024/03/29 05:32:28;;;;;;;1.58;0.70;;;;;;;;;;4996979;28;20048;-78
2024/03/29 05:34:54;;;;;;;2.67;0.55;;;;;;;;;;4992214;28;20038;-76
2024/03/29 05:37:25;;;;;;;1.95;0.70;;;;;;;;;;4994385;28;20466;-77
2024/03/29 05:39:58;;;;;;;1.90;0.73;;;;;;;;;;4984669;28;20034;-78
2024/03/29 05:42:27;;;;;;;0.20;0.20;;;;;;;;;;4988503;28;20398;-78
2024/03/29 05:44:53;;;;;;;2.13;0.60;;;;;;;;;;4997075;28;20430;-77
2024/03/29 05:47:19;;;;;;;1.80;0.60;;;;;;;;;;5004230;28;20556;-77
2024/03/29 05:49:44;;;;;;;0.60;0.45;;;;;;;;;;4991496;28;20141;-78
2024/03/29 05:52:09;;;;;;;2.80;0.85;;;;;;;;;;4993231;28;20041;-78
2024/03/29 05:54:35;;;;;;;0.40;0.40;;;;;;;;;;5009486;28;20037;-78
2024/03/29 05:57:00;;;;;;;1.05;0.50;;;;;;;;;;5003195;28;20875;-78
2024/03/29 05:59:26;;;;;;;1.20;0.55;;;;;;;;;;5004286;28;20628;-78
2024/03/29 06:01:52;;;;;;;1.25;0.70;;;;;;;;;;5004327;28;20163;-79
2024/03/29 06:04:19;;;;;;;0.85;0.50;;;;;;;;;;5000584;28;20146;-78
2024/03/29 06:06:45;;;;;;;3.03;0.40;;;;;;;;;;4963396;28;20049;-79
2024/03/29 06:09:11;;;;;;;1.33;0.50;;;;;;;;;;4995997;28;20753;-79
2024/03/29 06:11:36;;;;;;;1.65;0.82;;;;;;;;;;5000930;28;20041;-79
2024/03/29 06:19:17;;;;;;;0.43;0.40;;;;;;;;;;4997073;28;20079;-78
2024/03/29 06:21:42;;;;;;;1.30;0.50;;;;;;;;;;5000032;28;20041;-78
2024/03/29 06:24:12;;;;;;;0.80;0.60;;;;;;;;;;5002044;28;20097;-78
2024/03/29 06:26:38;;;;;;;1.95;0.60;;;;;;;;;;4999270;28;20033;-78
2024/03/29 06:29:03;;;;;;;3.15;0.82;;;;;;;;;;5013419;28;20104;-79
2024/03/29 06:31:29;;;;;;;1.13;0.50;;;;;;;;;;4994055;28;20041;-79
2024/03/29 06:33:55;;;;;;;1.30;0.60;;;;;;;;;;5004219;28;20033;-79
2024/03/29 06:36:21;;;;;;;0.90;0.60;;;;;;;;;;4996160;28;20695;-78
2024/03/29 06:38:46;;;;;;;0.50;0.50;;;;;;;;;;4993706;28;20049;-78
2024/03/29 06:41:12;;;;;;;0.55;0.40;;;;;;;;;;5002521;28;20526;-80
2024/03/29 06:43:44;;;;;;;3.03;0.40;;;;;;;;;;4996152;28;20049;-77
2024/03/29 06:46:10;;;;;;;1.38;0.40;;;;;;;;;;4992589;28;20659;-77
2024/03/29 06:48:36;;;;;;;1.67;0.60;;;;;;;;;;5011710;28;20056;-78
2024/03/29 06:51:02;;;;;;;1.42;0.50;;;;;;;;;;4993123;28;20550;-77
2024/03/29 06:53:30;;;;;;;0.70;0.47;;;;;;;;;;5006829;28;20039;-76
2024/03/29 06:55:56;;;;;;;0.45;0.40;;;;;;;;;;5002870;28;20048;-79
2024/03/29 06:58:23;;;;;;;2.25;0.60;;;;;;;;;;4986394;28;20470;-78
2024/03/29 07:00:49;;;;;;;2.00;0.50;;;;;;;;;;5008079;28;20042;-80
2024/03/29 07:03:15;;;;;;;0.60;0.60;;;;;;;;;;5007489;28;20033;-79
2024/03/29 07:05:41;;;;;;;1.40;0.70;;;;;;;;;;5007634;28;20037;-79
2024/03/29 07:08:06;;;;;;;0.93;0.50;;;;;;;;;;4977704;28;20040;-78
2024/03/29 07:10:32;;;;;;;0.70;0.60;;;;;;;;;;5004436;28;20045;-78
2024/03/29 07:12:58;;;;;;;0.82;0.45;;;;;;;;;;4998338;28;20041;-79
2024/03/29 07:15:23;;;;;;;0.60;0.47;;;;;;;;;;4984361;28;20481;-78
2024/03/29 07:17:50;;;;;;;0.20;0.20;;;;;;;;;;4998934;28;20050;-79
2024/03/29 07:20:16;;;;;;;1.15;0.55;;;;;;;;;;4981382;28;20134;-78
2024/03/29 07:22:42;;;;;;;0.60;0.60;;;;;;;;;;5001253;28;20609;-79
2024/03/29 07:25:07;;;;;;;0.90;0.50;;;;;;;;;;4987520;28;20045;-78
2024/03/29 07:27:36;;;;;;;0.43;0.40;;;;;;;;;;4997868;28;20695;-80
2024/03/29 07:30:03;;;;;;;1.75;0.40;;;;;;;;;;4980127;28;20048;-79
2024/03/29 07:32:29;;;;;;;1.00;0.30;;;;;;;;;;4997276;28;20029;-80
2024/03/29 07:34:57;;;;;;;0.90;0.40;;;;;;;;;;5000913;28;20052;-79
2024/03/29 07:37:23;;;;;;;2.15;0.50;;;;;;;;;;4997815;28;20037;-78
2024/03/29 07:39:49;;;;;;;10.05;1.20;;;;;;;;;;4985780;28;20045;-77
2024/03/29 07:42:14;;;;;;;0.85;0.45;;;;;;;;;;4990091;28;20058;-80
2024/03/29 07:44:39;;;;;;;0.40;0.40;;;;;;;;;;4996342;28;20093;-80
2024/03/29 07:47:05;;;;;;;0.68;0.43;;;;;;;;;;4963281;28;20041;-79
2024/03/29 07:49:30;;;;;;;0.57;0.45;;;;;;;;;;4994969;28;20740;-79
2024/03/29 07:51:55;;;;;;;0.60;0.35;;;;;;;;;;4989550;28;20087;-79
2024/03/29 07:54:21;;;;;;;1.73;0.60;;;;;;;;;;4998740;28;20516;-79
2024/03/29 07:56:46;;;;;;;0.60;0.60;;;;;;;;;;5006012;28;20514;-78
2024/03/29 07:59:11;;;;;;;0.52;0.40;;;;;;;;;;5008969;28;20126;-78
2024/03/29 08:01:37;;;;;;;0.98;0.57;;;;;;;;;;4989682;28;20056;-79
2024/03/29 08:04:02;;;;;;;0.38;0.28;;;;;;;;;;4987195;28;20048;-77
2024/03/29 08:06:28;;;;;;;0.63;0.60;;;;;;;;;;5000521;28;20074;-80
2024/03/29 08:08:53;;;;;;;0.73;0.73;;;;;;;;;;5001407;28;20573;-79
2024/03/29 08:11:19;;;;;;;0.80;0.50;;;;;;;;;;4990042;28;20672;-80
2024/03/29 08:13:44;;;;;;;0.50;0.50;;;;;;;;;;4990091;28;20038;-80
2024/03/29 08:16:10;;;;;;;1.15;0.40;;;;;;;;;;4982953;28;20065;-78
2024/03/29 08:18:36;;;;;;;0.28;0.28;;;;;;;;;;5000651;28;20037;-79
2024/03/29 08:21:02;;;;;;;1.02;0.30;;;;;;;;;;4994542;28;20041;-80
2024/03/29 08:23:28;;;;;;;5.15;0.50;;;;;;;;;;5012760;28;20241;-78
2024/03/29 08:25:55;;;;;;;2.90;0.50;;;;;;;;;;5005115;28;20134;-79
2024/03/29 08:28:24;;;;;;;0.55;0.40;;;;;;;;;;5010672;28;20067;-79
2024/03/29 08:31:05;;;;;;;1.65;0.60;;;;;;;;;;4970186;28;20068;-79
2024/03/29 08:33:33;;;;;;;0.70;0.60;;;;;;;;;;4992904;28;20029;-78
2024/03/29 08:35:58;;;;;;;2.50;0.50;;;;;;;;;;4978331;28;20107;-79
2024/03/29 08:38:25;;;;;;;0.45;0.30;;;;;;;;;;5005939;28;20037;-78
2024/03/29 08:40:51;;;;;;;0.45;0.45;;;;;;;;;;5010283;28;20044;-80
2024/03/29 08:43:17;;;;;;;0.52;0.30;;;;;;;;;;4989258;28;20037;-81
2024/03/29 08:45:44;;;;;;;0.75;0.52;;;;;;;;;;4972270;28;20119;-80
2024/03/29 08:48:09;;;;;;;0.47;0.30;;;;;;;;;;4977508;28;20096;-80
2024/03/29 08:50:35;;;;;;;1.83;0.68;;;;;;;;;;5011071;28;20524;-80
2024/03/29 08:53:03;;;;;;;1.15;0.30;;;;;;;;;;5013500;28;20529;-79
2024/03/29 08:55:30;;;;;;;2.55;0.57;;;;;;;;;;4996751;28;20041;-79
2024/03/29 08:57:58;;;;;;;1.45;0.77;;;;;;;;;;4990397;28;20034;-80
2024/03/29 09:00:24;;;;;;;1.13;0.40;;;;;;;;;;5011834;28;20526;-81
2024/03/29 09:02:49;;;;;;;0.50;0.40;;;;;;;;;;4968652;28;20129;-82
2024/03/29 09:05:14;;;;;;;1.20;0.65;;;;;;;;;;4993652;28;20104;-82
2024/03/29 09:07:40;;;;;;;1.70;0.50;;;;;;;;;;4997661;28;20041;-81
2024/03/29 09:10:07;;;;;;;1.02;0.40;;;;;;;;;;4997628;28;20037;-81
2024/03/29 09:12:32;;;;;;;0.40;0.40;;;;;;;;;;5004365;28;20121;-81
2024/03/29 09:14:58;;;;;;;1.73;0.65;;;;;;;;;;4982798;28;20609;-79
2024/03/29 09:17:24;;;;;;;0.85;0.50;;;;;;;;;;4988668;28;20034;-80
2024/03/29 09:19:51;;;;;;;1.58;0.50;;;;;;;;;;4983156;28;20034;-81
2024/03/29 09:22:17;;;;;;;1.05;0.50;;;;;;;;;;4979251;28;20061;-81
2024/03/29 09:24:43;;;;;;;1.85;0.60;;;;;;;;;;5005242;28;20714;-79
2024/03/29 09:27:08;;;;;;;1.05;0.50;;;;;;;;;;5002887;28;20157;-79
2024/03/29 09:29:36;;;;;;;0.57;0.50;;;;;;;;;;5008178;28;20034;-81
2024/03/29 09:32:02;;;;;;;1.48;0.85;;;;;;;;;;5002532;28;20038;-78
2024/03/29 09:34:28;;;;;;;2.05;0.70;;;;;;;;;;4984969;28;20113;-81
2024/03/29 09:36:53;;;;;;;1.08;0.60;;;;;;;;;;4973341;28;20538;-81
2024/03/29 09:39:19;;;;;;;0.32;0.32;;;;;;;;;;4999320;28;20037;-80
2024/03/29 09:41:47;;;;;;;1.55;0.55;;;;;;;;;;4996996;28;20142;-78
2024/03/29 09:44:13;;;;;;;0.70;0.70;;;;;;;;;;4988339;28;20056;-78
2024/03/29 09:46:39;;;;;;;0.50;0.38;;;;;;;;;;4982915;28;20038;-82
2024/03/29 09:49:06;;;;;;;1.60;0.70;;;;;;;;;;4991377;28;20100;-80
2024/03/29 09:51:32;;;;;;;0.47;0.47;;;;;;;;;;5002361;28;20120;-81
2024/03/29 09:53:59;;;;;;;0.43;0.30;;;;;;;;;;4993819;28;20177;-79
2024/03/29 09:56:28;;;;;;;1.48;0.52;;;;;;;;;;4986230;28;20068;-79
2024/03/29 09:58:53;;;;;;;0.38;0.38;;;;;;;;;;5006916;28;20033;-77
2024/03/29 10:01:19;;;;;;;0.32;0.30;;;;;;;;;;5001507;28;20612;-79
2024/03/29 10:03:51;;;;;;;0.43;0.40;;;;;;;;;;4999122;28;20085;-79
2024/03/29 10:06:19;;;;;;;1.13;0.55;;;;;;;;;;4965123;28;20441;-78
2024/03/29 10:08:45;;;;;;;0.40;0.40;;;;;;;;;;5007021;28;20558;-78
2024/03/29 10:11:16;;;;;;;1.88;0.47;;;;;;;;;;5007335;28;20073;-77
2024/03/29 10:13:42;;;;;;;;;;;;;;;;;;4999343;28;20037;-79
2024/03/29 10:16:10;;;;;;;0.57;0.57;;;;;;;;;;5003947;28;19936;-78
2024/03/29 10:18:36;;;;;;;1.77;0.57;;;;;;;;;;4997112;28;20026;-79
2024/03/29 10:21:06;;;;;;;1.00;0.50;;;;;;;;;;4999623;28;20037;-79
2024/03/29 10:23:32;;;;;;;2.28;0.50;;;;;;;;;;4953615;28;20031;-79
2024/03/29 10:25:58;;;;;;;0.40;0.38;;;;;;;;;;4988653;28;20068;-79
2024/03/29 10:28:31;;;;;;;0.95;0.52;;;;;;;;;;5009804;28;20130;-78
2024/03/29 10:30:56;;;;;;;0.60;0.30;;;;;;;;;;5003024;28;20245;-78
2024/03/29 10:33:22;;;;;;;2.10;0.40;;;;;;;;;;4967685;28;20039;-79
2024/03/29 10:35:47;;;;;;;1.95;0.50;;;;;;;;;;4986590;28;20585;-80
2024/03/29 10:38:13;;;;;;;0.63;0.30;;;;;;;;;;4995856;28;20036;-78
2024/03/29 10:40:42;;;;;;;0.50;0.50;;;;;;;;;;5003481;28;20033;-78
2024/03/29 10:43:16;;;;;;;0.70;0.52;;;;;;;;;;5005421;28;20046;-78
2024/03/29 10:45:44;;;;;;;1.25;0.50;;;;;;;;;;4990630;28;20103;-78
2024/03/29 10:48:10;;;;;;;0.50;0.50;;;;;;;;;;5005625;28;20080;-77
2024/03/29 10:50:36;;;;;;;0.85;0.40;;;;;;;;;;5007079;28;20111;-78
2024/03/29 10:53:03;;;;;;;1.23;0.40;;;;;;;;;;4974705;28;20063;-78
2024/03/29 10:55:36;;;;;;;0.38;0.30;;;;;;;;;;5008158;28;20053;-79
2024/03/29 10:58:03;;;;;;;1.40;0.30;;;;;;;;;;4994415;28;20045;-79
2024/03/29 11:00:38;;;;;;;0.80;0.45;;;;;;;;;;4992043;28;20143;-79
2024/03/29 11:03:14;;;;;;;0.30;0.22;;;;;;;;;;5013603;28;20088;-79
2024/03/29 11:05:48;;;;;;;0.45;0.32;;;;;;;;;;4992677;28;20101;-79
2024/03/29 11:08:23;;;;;;;0.20;0.20;;;;;;;;;;4962969;28;20045;-77
2024/03/29 11:10:54;;;;;;;0.30;0.30;;;;;;;;;;4986355;28;20670;-80
2024/03/29 11:13:37;;;;;;;;;;;;;;;;;;4998868;28;20048;-79
2024/03/29 11:16:04;;;;;;;0.52;0.35;;;;;;;;;;4988107;28;19924;-80
2024/03/29 11:18:30;;;;;;;0.30;0.30;;;;;;;;;;5007995;28;20080;-79
2024/03/29 11:20:57;;;;;;;0.75;0.40;;;;;;;;;;4993186;28;20034;-79
2024/03/29 11:23:26;;;;;;;2.25;0.32;;;;;;;;;;4996070;28;20050;-78
2024/03/29 11:26:02;;;;;;;0.25;0.25;;;;;;;;;;4985116;28;20046;-79
2024/03/29 11:28:34;;;;;;;0.20;0.20;;;;;;;;;;5002999;28;20053;-80
2024/03/29 11:31:04;;;;;;;0.30;0.30;;;;;;;;;;4975363;28;20042;-80
2024/03/29 11:33:42;;;;;;;0.77;0.47;;;;;;;;;;4998203;28;20057;-79
2024/03/29 11:36:24;;;;;;;2.08;0.50;;;;;;;;;;4974753;28;20498;-78
2024/03/29 11:38:51;;;;;;;0.88;0.50;;;;;;;;;;5011784;28;20042;-79
2024/03/29 11:41:20;;;;;;;0.50;0.30;;;;;;;;;;5011234;28;20076;-80
2024/03/29 11:43:45;;;;;;;1.50;0.75;;;;;;;;;;4999623;28;20077;-80
2024/03/29 11:46:13;;;;;;;0.32;0.32;;;;;;;;;;4985770;28;20056;-80
2024/03/29 11:48:39;;;;;;;1.30;0.60;;;;;;;;;;4989536;28;20441;-77
2024/03/29 11:51:08;;;;;;;0.52;0.28;;;;;;;;;;5015038;28;20096;-79
2024/03/29 11:53:34;;;;;;;0.50;0.50;;;;;;;;;;5015310;28;20038;-78
2024/03/29 11:56:04;;;;;;;0.40;0.22;;;;;;;;;;5018964;28;20045;-79
2024/03/29 11:58:31;;;;;;;1.30;0.40;;;;;;;;;;4996223;28;20112;-78
2024/03/29 12:00:58;;;;;;;0.93;0.30;;;;;;;;;;4987808;28;20029;-79
2024/03/29 12:03:26;;;;;;;0.75;0.50;;;;;;;;;;5006795;28;20120;-78
2024/03/29 12:05:58;;;;;;;0.88;0.22;;;;;;;;;;4970004;28;20038;-80
2024/03/29 12:08:28;;;;;;;0.22;0.22;;;;;;;;;;4979655;28;20408;-79
2024/03/29 12:10:54;;;;;;;0.50;0.47;;;;;;;;;;4990534;28;20149;-80
2024/03/29 12:13:29;;;;;;;0.57;0.50;;;;;;;;;;4995871;28;20538;-79
2024/03/29 12:15:54;;;;;;;0.40;0.40;;;;;;;;;;4980599;28;20037;-78
2024/03/29 12:18:25;;;;;;;1.40;0.50;;;;;;;;;;4984332;28;20676;-77
2024/03/29 12:20:52;;;;;;;0.40;0.20;;;;;;;;;;4969805;28;20046;-79
2024/03/29 12:23:18;;;;;;;0.30;0.30;;;;;;;;;;4997049;28;20498;-78
2024/03/29 12:25:45;;;;;;;0.40;0.40;;;;;;;;;;5009606;28;20081;-78
2024/03/29 12:28:15;;;;;;;1.08;0.43;;;;;;;;;;5007242;28;20038;-78
2024/03/29 12:30:42;;;;;;;0.63;0.40;;;;;;;;;;4993597;28;20685;-79
2024/03/29 12:33:12;;;;;;;0.45;0.30;;;;;;;;;;4982064;28;21373;-77
2024/03/29 12:35:38;;;;;;;1.02;0.40;;;;;;;;;;4992585;28;20065;-79
2024/03/29 12:38:07;;;;;;;3.25;0.65;;;;;;;;;;4998181;28;20075;-78
2024/03/29 12:40:35;;;;;;;2.08;0.70;;;;;;;;;;4993580;28;20045;-79
2024/03/29 12:43:08;;;;;;;0.55;0.43;;;;;;;;;;4998568;28;20038;-77
2024/03/29 12:45:39;;;;;;;0.65;0.50;;;;;;;;;;4980323;28;20037;-79
2024/03/29 12:48:22;;;;;;;0.95;0.30;;;;;;;;;;4982026;28;20577;-79
2024/03/29 12:50:48;;;;;;;0.68;0.57;;;;;;;;;;4962499;28;20070;-78
2024/03/29 12:53:15;;;;;;;1.33;0.47;;;;;;;;;;4985476;28;20530;-77
2024/03/29 12:55:45;;;;;;;1.02;0.60;;;;;;;;;;4966805;28;20117;-79
2024/03/29 12:58:16;;;;;;;0.80;0.70;;;;;;;;;;4977614;28;20070;-78
2024/03/29 13:00:41;;;;;;;0.35;0.35;;;;;;;;;;4984422;28;20033;-78
2024/03/29 13:03:08;;;;;;;0.98;0.30;;;;;;;;;;4976989;28;20038;-77
2024/03/29 13:05:40;;;;;;;1.10;0.60;;;;;;;;;;4979408;28;20037;-77
2024/03/29 13:08:10;;;;;;;0.40;0.40;;;;;;;;;;4995880;28;20053;-76
2024/03/29 13:10:36;;;;;;;0.28;0.28;;;;;;;;;;4978153;28;20577;-77
2024/03/29 13:13:02;;;;;;;0.85;0.52;;;;;;;;;;4992126;28;20048;-79
2024/03/29 13:15:28;;;;;;;2.30;0.50;;;;;;;;;;4994367;28;20140;-79
2024/03/29 13:17:55;;;;;;;0.47;0.40;;;;;;;;;;4998815;28;20034;-77
2024/03/29 13:20:22;;;;;;;0.43;0.28;;;;;;;;;;4973011;28;20049;-77
2024/03/29 13:22:49;;;;;;;0.85;0.40;;;;;;;;;;4988273;28;20073;-78
2024/03/29 13:25:21;;;;;;;0.77;0.50;;;;;;;;;;4974067;28;20046;-77
2024/03/29 13:27:49;;;;;;;0.40;0.40;;;;;;;;;;4988067;28;20100;-77
2024/03/29 13:30:15;;;;;;;0.63;0.55;;;;;;;;;;4974797;28;20038;-77
2024/03/29 13:32:41;;;;;;;0.70;0.68;;;;;;;;;;5001569;28;20030;-77
2024/03/29 13:35:10;;;;;;;0.80;0.50;;;;;;;;;;4986173;28;20049;-78
2024/03/29 13:37:40;;;;;;;1.83;0.70;;;;;;;;;;4978976;28;20037;-77
2024/03/29 13:40:07;;;;;;;1.07;0.53;;;;;;;;;;4974811;28;20069;-78
2024/03/29 13:42:33;;;;;;;1.10;0.63;;;;;;;;;;4977908;28;20128;-80
2024/03/29 13:44:58;;;;;;;1.48;0.93;;;;;;;;;;4987506;28;20493;-79
2024/03/29 13:47:24;;;;;;;1.15;0.90;;;;;;;;;;4994371;28;20505;-78
2024/03/29 13:49:52;;;;;;;0.77;0.77;;;;;;;;;;4967364;28;20030;-79
2024/03/29 13:52:18;;;;;;;0.68;0.60;;;;;;;;;;4968000;28;20523;-78
2024/03/29 13:54:47;;;;;;;1.00;0.80;;;;;;;;;;4985762;28;20070;-78
2024/03/29 13:57:14;;;;;;;1.15;1.05;;;;;;;;;;4975789;28;20069;-79
2024/03/29 13:59:44;;;;;;;1.17;0.60;;;;;;;;;;4975983;28;20045;-79
2024/03/29 14:02:18;;;;;;;0.60;0.60;;;;;;;;;;4995564;28;20072;-78
2024/03/29 14:04:46;;;;;;;0.80;0.80;;;;;;;;;;4964624;28;20137;-78
2024/03/29 14:07:14;;;;;;;0.55;0.55;;;;;;;;;;4968508;28;20057;-79
2024/03/29 14:09:41;;;;;;;0.65;0.55;;;;;;;;;;4958213;28;20042;-78
2024/03/29 14:12:07;;;;;;;1.17;0.55;;;;;;;;;;4977473;28;20042;-78
2024/03/29 14:14:33;;;;;;;0.60;0.50;;;;;;;;;;4990055;28;20512;-78
2024/03/29 14:17:04;;;;;;;0.82;0.65;;;;;;;;;;4995288;28;20136;-78
2024/03/29 14:19:39;;;;;;;0.88;0.60;;;;;;;;;;4998225;28;20045;-79
2024/03/29 14:22:06;;;;;;;1.20;0.60;;;;;;;;;;4971427;28;20050;-78
2024/03/29 14:24:35;;;;;;;0.40;0.40;;;;;;;;;;4987810;28;20052;-78
2024/03/29 14:27:04;;;;;;;0.82;0.60;;;;;;;;;;4985067;28;20041;-78
2024/03/29 14:29:33;;;;;;;2.40;0.55;;;;;;;;;;4971138;28;20050;-77
2024/03/29 14:31:59;;;;;;;0.73;0.43;;;;;;;;;;4972155;28;20080;-78
2024/03/29 14:34:26;;;;;;;1.08;0.77;;;;;;;;;;4976319;28;20045;-78
2024/03/29 14:36:51;;;;;;;0.90;0.60;;;;;;;;;;4958412;28;20035;-78
2024/03/29 14:39:20;;;;;;;0.65;0.60;;;;;;;;;;4975247;28;20038;-78
2024/03/29 14:41:46;;;;;;;0.50;0.50;;;;;;;;;;4976860;28;20550;-79
2024/03/29 14:44:12;;;;;;;0.65;0.50;;;;;;;;;;4987376;28;20048;-78
2024/03/29 14:46:38;;;;;;;0.68;0.68;;;;;;;;;;4984756;28;20109;-77
2024/03/29 14:49:05;;;;;;;0.60;0.60;;;;;;;;;;4985369;28;20038;-79